sensor_id;sensor_type;location;lat;lon;timestamp;P1;durP1;ratioP1;P2;durP2;ratioP2
13584;SDS011;6863;48.402;9.994;2022-12-18T00:02:15;60.93;;;27.43;;
13584;SDS011;6863;48.402;9.994;2022-12-18T00:04:41;55.17;;;27.33;;
13584;SDS011;6863;48.402;9.994;2022-12-18T00:07:06;54.10;;;27.50;;
13584;SDS011;6863;48.402;9.994;2022-12-18T00:09:32;58.17;;;27.73;;
13584;SDS011;6863;48.402;9.994;2022-12-18T00:11:58;57.27;;;26.80;;
13584;SDS011;6863;48.402;9.994;2022-12-18T00:14:23;61.87;;;29.53;;
13584;SDS011;6863;48.402;9.994;2022-12-18T00:16:49;52.20;;;28.23;;
13584;SDS011;6863;48.402;9.994;2022-12-18T00:19:14;53.77;;;27.83;;
13584;SDS011;6863;48.402;9.994;2022-12-18T00:21:41;53.00;;;26.90;;
13584;SDS011;6863;48.402;9.994;2022-12-18T00:24:08;52.50;;;26.60;;
13584;SDS011;6863;48.402;9.994;2022-12-18T00:26:35;54.57;;;28.97;;
13584;SDS011;6863;48.402;9.994;2022-12-18T00:29:04;52.63;;;29.23;;
13584;SDS011;6863;48.402;9.994;2022-12-18T00:31:31;58.57;;;27.83;;
13584;SDS011;6863;48.402;9.994;2022-12-18T00:33:57;58.83;;;29.47;;
13584;SDS011;6863;48.402;9.994;2022-12-18T00:36:29;52.03;;;27.33;;
13584;SDS011;6863;48.402;9.994;2022-12-18T00:38:57;58.90;;;28.53;;
13584;SDS011;6863;48.402;9.994;2022-12-18T00:41:23;55.67;;;28.33;;
13584;SDS011;6863;48.402;9.994;2022-12-18T00:44:09;55.70;;;28.60;;
13584;SDS011;6863;48.402;9.994;2022-12-18T00:46:36;54.13;;;29.13;;
13584;SDS011;6863;48.402;9.994;2022-12-18T00:49:02;56.57;;;27.73;;
13584;SDS011;6863;48.402;9.994;2022-12-18T00:51:29;62.70;;;28.13;;
13584;SDS011;6863;48.402;9.994;2022-12-18T00:53:54;61.50;;;28.43;;
13584;SDS011;6863;48.402;9.994;2022-12-18T00:56:20;52.60;;;27.70;;
13584;SDS011;6863;48.402;9.994;2022-12-18T00:58:48;56.03;;;27.60;;
13584;SDS011;6863;48.402;9.994;2022-12-18T01:01:14;59.83;;;27.03;;
13584;SDS011;6863;48.402;9.994;2022-12-18T01:03:40;60.30;;;27.27;;
13584;SDS011;6863;48.402;9.994;2022-12-18T01:06:09;60.87;;;30.33;;
13584;SDS011;6863;48.402;9.994;2022-12-18T01:08:36;58.43;;;28.00;;
13584;SDS011;6863;48.402;9.994;2022-12-18T01:11:09;52.57;;;26.93;;
13584;SDS011;6863;48.402;9.994;2022-12-18T01:13:40;57.13;;;28.10;;
13584;SDS011;6863;48.402;9.994;2022-12-18T01:16:05;60.17;;;29.27;;
13584;SDS011;6863;48.402;9.994;2022-12-18T01:18:31;47.53;;;26.33;;
13584;SDS011;6863;48.402;9.994;2022-12-18T01:20:57;56.30;;;28.50;;
13584;SDS011;6863;48.402;9.994;2022-12-18T01:23:22;52.83;;;27.17;;
13584;SDS011;6863;48.402;9.994;2022-12-18T01:25:51;60.90;;;29.20;;
13584;SDS011;6863;48.402;9.994;2022-12-18T01:28:16;57.40;;;29.27;;
13584;SDS011;6863;48.402;9.994;2022-12-18T01:30:42;53.87;;;27.40;;
13584;SDS011;6863;48.402;9.994;2022-12-18T01:33:07;53.90;;;29.33;;
13584;SDS011;6863;48.402;9.994;2022-12-18T01:35:33;55.90;;;28.33;;
13584;SDS011;6863;48.402;9.994;2022-12-18T01:38:04;50.77;;;27.77;;
13584;SDS011;6863;48.402;9.994;2022-12-18T01:40:30;62.37;;;31.00;;
13584;SDS011;6863;48.402;9.994;2022-12-18T01:42:55;61.13;;;28.53;;
13584;SDS011;6863;48.402;9.994;2022-12-18T01:45:22;66.00;;;30.93;;
13584;SDS011;6863;48.402;9.994;2022-12-18T01:47:56;54.33;;;29.10;;
13584;SDS011;6863;48.402;9.994;2022-12-18T01:53:05;58.53;;;30.63;;
13584;SDS011;6863;48.402;9.994;2022-12-18T01:55:35;58.27;;;28.23;;
13584;SDS011;6863;48.402;9.994;2022-12-18T01:58:03;60.03;;;30.20;;
13584;SDS011;6863;48.402;9.994;2022-12-18T02:00:29;57.57;;;29.43;;
13584;SDS011;6863;48.402;9.994;2022-12-18T02:02:56;60.40;;;30.27;;
13584;SDS011;6863;48.402;9.994;2022-12-18T02:05:44;59.70;;;29.23;;
13584;SDS011;6863;48.402;9.994;2022-12-18T02:08:16;52.93;;;28.53;;
13584;SDS011;6863;48.402;9.994;2022-12-18T02:11:02;58.67;;;29.30;;
13584;SDS011;6863;48.402;9.994;2022-12-18T02:19:11;58.97;;;29.27;;
13584;SDS011;6863;48.402;9.994;2022-12-18T02:27:10;56.93;;;28.40;;
13584;SDS011;6863;48.402;9.994;2022-12-18T02:29:54;59.87;;;28.17;;
13584;SDS011;6863;48.402;9.994;2022-12-18T02:32:26;57.53;;;27.73;;
13584;SDS011;6863;48.402;9.994;2022-12-18T02:34:59;60.93;;;29.70;;
13584;SDS011;6863;48.402;9.994;2022-12-18T02:37:27;54.60;;;27.93;;
13584;SDS011;6863;48.402;9.994;2022-12-18T02:39:55;59.67;;;30.03;;
13584;SDS011;6863;48.402;9.994;2022-12-18T02:42:23;50.23;;;27.30;;
13584;SDS011;6863;48.402;9.994;2022-12-18T02:44:50;59.43;;;29.83;;
13584;SDS011;6863;48.402;9.994;2022-12-18T02:47:17;65.73;;;30.47;;
13584;SDS011;6863;48.402;9.994;2022-12-18T03:01:24;49.03;;;27.53;;
13584;SDS011;6863;48.402;9.994;2022-12-18T03:06:47;62.50;;;29.33;;
13584;SDS011;6863;48.402;9.994;2022-12-18T03:09:19;52.00;;;28.00;;
13584;SDS011;6863;48.402;9.994;2022-12-18T03:11:52;62.03;;;27.90;;
13584;SDS011;6863;48.402;9.994;2022-12-18T03:14:40;55.33;;;28.00;;
13584;SDS011;6863;48.402;9.994;2022-12-18T03:17:09;54.87;;;29.53;;
13584;SDS011;6863;48.402;9.994;2022-12-18T03:19:37;53.43;;;28.67;;
13584;SDS011;6863;48.402;9.994;2022-12-18T03:22:04;50.43;;;27.03;;
13584;SDS011;6863;48.402;9.994;2022-12-18T03:24:32;53.93;;;27.73;;
13584;SDS011;6863;48.402;9.994;2022-12-18T03:27:02;58.03;;;29.13;;
13584;SDS011;6863;48.402;9.994;2022-12-18T03:29:41;51.47;;;28.93;;
13584;SDS011;6863;48.402;9.994;2022-12-18T03:32:19;53.27;;;29.07;;
13584;SDS011;6863;48.402;9.994;2022-12-18T03:34:57;62.50;;;29.43;;
13584;SDS011;6863;48.402;9.994;2022-12-18T03:37:27;59.03;;;29.20;;
13584;SDS011;6863;48.402;9.994;2022-12-18T03:39:55;59.60;;;30.50;;
13584;SDS011;6863;48.402;9.994;2022-12-18T03:42:24;61.57;;;30.77;;
13584;SDS011;6863;48.402;9.994;2022-12-18T03:45:13;65.20;;;33.27;;
13584;SDS011;6863;48.402;9.994;2022-12-18T03:50:22;61.60;;;30.93;;
13584;SDS011;6863;48.402;9.994;2022-12-18T03:53:00;57.57;;;31.73;;
13584;SDS011;6863;48.402;9.994;2022-12-18T03:55:36;55.10;;;30.70;;
13584;SDS011;6863;48.402;9.994;2022-12-18T03:58:03;64.93;;;31.13;;
13584;SDS011;6863;48.402;9.994;2022-12-18T04:00:31;64.63;;;32.63;;
13584;SDS011;6863;48.402;9.994;2022-12-18T04:02:58;63.73;;;30.53;;
13584;SDS011;6863;48.402;9.994;2022-12-18T04:05:26;63.60;;;32.67;;
13584;SDS011;6863;48.402;9.994;2022-12-18T04:07:53;64.83;;;32.17;;
13584;SDS011;6863;48.402;9.994;2022-12-18T04:10:21;70.03;;;32.93;;
13584;SDS011;6863;48.402;9.994;2022-12-18T04:12:47;66.33;;;31.70;;
13584;SDS011;6863;48.402;9.994;2022-12-18T04:15:13;69.07;;;33.03;;
13584;SDS011;6863;48.402;9.994;2022-12-18T04:17:39;67.03;;;34.17;;
13584;SDS011;6863;48.402;9.994;2022-12-18T04:20:12;65.27;;;32.70;;
13584;SDS011;6863;48.402;9.994;2022-12-18T04:22:37;70.23;;;34.20;;
13584;SDS011;6863;48.402;9.994;2022-12-18T04:25:03;64.67;;;32.77;;
13584;SDS011;6863;48.402;9.994;2022-12-18T04:27:29;74.63;;;34.40;;
13584;SDS011;6863;48.402;9.994;2022-12-18T04:29:54;74.33;;;35.27;;
13584;SDS011;6863;48.402;9.994;2022-12-18T04:32:20;71.70;;;32.90;;
13584;SDS011;6863;48.402;9.994;2022-12-18T04:34:46;57.67;;;30.43;;
13584;SDS011;6863;48.402;9.994;2022-12-18T04:37:11;65.83;;;33.00;;
13584;SDS011;6863;48.402;9.994;2022-12-18T04:39:37;63.70;;;31.63;;
13584;SDS011;6863;48.402;9.994;2022-12-18T04:42:02;63.77;;;31.60;;
13584;SDS011;6863;48.402;9.994;2022-12-18T04:44:28;67.00;;;31.93;;
13584;SDS011;6863;48.402;9.994;2022-12-18T04:46:53;71.30;;;33.07;;
13584;SDS011;6863;48.402;9.994;2022-12-18T04:49:19;63.00;;;31.97;;
13584;SDS011;6863;48.402;9.994;2022-12-18T04:51:45;70.13;;;32.97;;
13584;SDS011;6863;48.402;9.994;2022-12-18T04:54:10;65.87;;;31.40;;
13584;SDS011;6863;48.402;9.994;2022-12-18T04:56:36;65.70;;;31.77;;
13584;SDS011;6863;48.402;9.994;2022-12-18T04:59:01;71.93;;;31.73;;
13584;SDS011;6863;48.402;9.994;2022-12-18T05:01:27;58.57;;;31.70;;
13584;SDS011;6863;48.402;9.994;2022-12-18T05:03:52;68.67;;;33.27;;
13584;SDS011;6863;48.402;9.994;2022-12-18T05:06:18;65.30;;;31.17;;
13584;SDS011;6863;48.402;9.994;2022-12-18T05:08:43;67.83;;;33.27;;
13584;SDS011;6863;48.402;9.994;2022-12-18T05:11:10;64.83;;;34.13;;
13584;SDS011;6863;48.402;9.994;2022-12-18T05:13:38;63.77;;;31.70;;
13584;SDS011;6863;48.402;9.994;2022-12-18T05:16:04;66.57;;;32.73;;
13584;SDS011;6863;48.402;9.994;2022-12-18T05:18:31;64.97;;;32.80;;
13584;SDS011;6863;48.402;9.994;2022-12-18T05:20:57;71.30;;;33.43;;
13584;SDS011;6863;48.402;9.994;2022-12-18T05:23:23;71.83;;;33.67;;
13584;SDS011;6863;48.402;9.994;2022-12-18T05:25:56;70.53;;;32.30;;
13584;SDS011;6863;48.402;9.994;2022-12-18T05:28:24;71.40;;;34.47;;
13584;SDS011;6863;48.402;9.994;2022-12-18T05:30:53;68.07;;;33.37;;
13584;SDS011;6863;48.402;9.994;2022-12-18T05:33:21;67.37;;;32.00;;
13584;SDS011;6863;48.402;9.994;2022-12-18T05:35:50;67.47;;;32.50;;
13584;SDS011;6863;48.402;9.994;2022-12-18T05:38:17;62.63;;;31.03;;
13584;SDS011;6863;48.402;9.994;2022-12-18T05:40:43;63.07;;;32.80;;
13584;SDS011;6863;48.402;9.994;2022-12-18T05:43:09;67.00;;;32.87;;
13584;SDS011;6863;48.402;9.994;2022-12-18T05:45:38;68.47;;;32.13;;
13584;SDS011;6863;48.402;9.994;2022-12-18T05:48:05;77.20;;;34.90;;
13584;SDS011;6863;48.402;9.994;2022-12-18T05:50:33;79.80;;;34.80;;
13584;SDS011;6863;48.402;9.994;2022-12-18T05:53:02;69.43;;;34.30;;
13584;SDS011;6863;48.402;9.994;2022-12-18T05:55:29;75.43;;;35.40;;
13584;SDS011;6863;48.402;9.994;2022-12-18T05:57:57;78.10;;;35.50;;
13584;SDS011;6863;48.402;9.994;2022-12-18T06:00:24;77.97;;;33.77;;
13584;SDS011;6863;48.402;9.994;2022-12-18T06:02:50;69.97;;;31.57;;
13584;SDS011;6863;48.402;9.994;2022-12-18T06:05:16;75.10;;;33.97;;
13584;SDS011;6863;48.402;9.994;2022-12-18T06:07:41;78.13;;;33.87;;
13584;SDS011;6863;48.402;9.994;2022-12-18T06:10:07;73.10;;;33.77;;
13584;SDS011;6863;48.402;9.994;2022-12-18T06:12:33;81.07;;;35.37;;
13584;SDS011;6863;48.402;9.994;2022-12-18T06:14:59;76.63;;;35.53;;
13584;SDS011;6863;48.402;9.994;2022-12-18T06:17:28;75.67;;;34.27;;
13584;SDS011;6863;48.402;9.994;2022-12-18T06:19:55;74.13;;;34.90;;
13584;SDS011;6863;48.402;9.994;2022-12-18T06:22:20;86.57;;;36.57;;
13584;SDS011;6863;48.402;9.994;2022-12-18T06:24:46;78.03;;;35.03;;
13584;SDS011;6863;48.402;9.994;2022-12-18T06:27:11;71.73;;;34.27;;
13584;SDS011;6863;48.402;9.994;2022-12-18T06:29:37;81.23;;;36.67;;
13584;SDS011;6863;48.402;9.994;2022-12-18T06:32:03;75.13;;;33.83;;
13584;SDS011;6863;48.402;9.994;2022-12-18T06:34:29;81.20;;;36.17;;
13584;SDS011;6863;48.402;9.994;2022-12-18T06:36:58;83.97;;;36.73;;
13584;SDS011;6863;48.402;9.994;2022-12-18T06:39:23;64.43;;;33.33;;
13584;SDS011;6863;48.402;9.994;2022-12-18T06:41:49;68.83;;;33.43;;
13584;SDS011;6863;48.402;9.994;2022-12-18T06:44:15;70.23;;;35.80;;
13584;SDS011;6863;48.402;9.994;2022-12-18T06:46:41;77.90;;;36.10;;
13584;SDS011;6863;48.402;9.994;2022-12-18T06:49:07;76.13;;;36.20;;
13584;SDS011;6863;48.402;9.994;2022-12-18T06:51:34;72.20;;;33.03;;
13584;SDS011;6863;48.402;9.994;2022-12-18T06:53:59;74.83;;;34.40;;
13584;SDS011;6863;48.402;9.994;2022-12-18T06:56:25;77.37;;;34.33;;
13584;SDS011;6863;48.402;9.994;2022-12-18T06:58:51;73.07;;;35.33;;
13584;SDS011;6863;48.402;9.994;2022-12-18T07:01:16;83.73;;;34.63;;
13584;SDS011;6863;48.402;9.994;2022-12-18T07:03:42;69.90;;;34.77;;
13584;SDS011;6863;48.402;9.994;2022-12-18T07:06:14;78.70;;;35.37;;
13584;SDS011;6863;48.402;9.994;2022-12-18T07:08:44;73.17;;;34.10;;
13584;SDS011;6863;48.402;9.994;2022-12-18T07:11:11;78.97;;;33.10;;
13584;SDS011;6863;48.402;9.994;2022-12-18T07:13:37;72.07;;;33.87;;
13584;SDS011;6863;48.402;9.994;2022-12-18T07:16:12;79.87;;;33.53;;
13584;SDS011;6863;48.402;9.994;2022-12-18T07:18:40;74.53;;;34.50;;
13584;SDS011;6863;48.402;9.994;2022-12-18T07:21:06;71.83;;;33.33;;
13584;SDS011;6863;48.402;9.994;2022-12-18T07:23:34;70.00;;;32.53;;
13584;SDS011;6863;48.402;9.994;2022-12-18T07:26:00;73.80;;;31.87;;
13584;SDS011;6863;48.402;9.994;2022-12-18T07:28:31;75.53;;;34.57;;
13584;SDS011;6863;48.402;9.994;2022-12-18T07:30:58;77.70;;;35.30;;
13584;SDS011;6863;48.402;9.994;2022-12-18T07:33:27;78.13;;;33.83;;
13584;SDS011;6863;48.402;9.994;2022-12-18T07:35:53;69.30;;;33.37;;
13584;SDS011;6863;48.402;9.994;2022-12-18T07:38:18;73.27;;;32.67;;
13584;SDS011;6863;48.402;9.994;2022-12-18T07:40:44;68.90;;;33.70;;
13584;SDS011;6863;48.402;9.994;2022-12-18T07:43:09;65.67;;;32.73;;
13584;SDS011;6863;48.402;9.994;2022-12-18T07:45:35;73.00;;;34.30;;
13584;SDS011;6863;48.402;9.994;2022-12-18T07:48:01;68.37;;;31.47;;
13584;SDS011;6863;48.402;9.994;2022-12-18T07:50:26;73.37;;;34.30;;
13584;SDS011;6863;48.402;9.994;2022-12-18T07:52:52;68.03;;;31.00;;
13584;SDS011;6863;48.402;9.994;2022-12-18T07:55:17;65.10;;;31.23;;
13584;SDS011;6863;48.402;9.994;2022-12-18T07:57:43;70.43;;;34.17;;
13584;SDS011;6863;48.402;9.994;2022-12-18T08:00:09;74.37;;;32.50;;
13584;SDS011;6863;48.402;9.994;2022-12-18T08:02:35;64.00;;;30.43;;
13584;SDS011;6863;48.402;9.994;2022-12-18T08:05:00;65.73;;;32.80;;
13584;SDS011;6863;48.402;9.994;2022-12-18T08:07:26;69.30;;;31.70;;
13584;SDS011;6863;48.402;9.994;2022-12-18T08:09:52;68.70;;;32.63;;
13584;SDS011;6863;48.402;9.994;2022-12-18T08:12:17;65.43;;;33.13;;
13584;SDS011;6863;48.402;9.994;2022-12-18T08:14:43;63.60;;;31.23;;
13584;SDS011;6863;48.402;9.994;2022-12-18T08:17:08;70.90;;;33.20;;
13584;SDS011;6863;48.402;9.994;2022-12-18T08:19:34;60.80;;;29.20;;
13584;SDS011;6863;48.402;9.994;2022-12-18T08:21:59;59.67;;;30.93;;
13584;SDS011;6863;48.402;9.994;2022-12-18T08:24:25;60.57;;;29.77;;
13584;SDS011;6863;48.402;9.994;2022-12-18T08:26:51;56.97;;;29.10;;
13584;SDS011;6863;48.402;9.994;2022-12-18T08:29:16;67.77;;;30.43;;
13584;SDS011;6863;48.402;9.994;2022-12-18T08:31:42;61.23;;;29.57;;
13584;SDS011;6863;48.402;9.994;2022-12-18T08:34:07;62.70;;;31.87;;
13584;SDS011;6863;48.402;9.994;2022-12-18T08:36:33;61.57;;;29.57;;
13584;SDS011;6863;48.402;9.994;2022-12-18T08:38:58;63.43;;;31.43;;
13584;SDS011;6863;48.402;9.994;2022-12-18T08:41:24;53.20;;;28.10;;
13584;SDS011;6863;48.402;9.994;2022-12-18T08:43:50;57.33;;;27.57;;
13584;SDS011;6863;48.402;9.994;2022-12-18T08:46:35;55.73;;;28.27;;
13584;SDS011;6863;48.402;9.994;2022-12-18T08:49:03;56.20;;;26.13;;
13584;SDS011;6863;48.402;9.994;2022-12-18T08:51:29;52.80;;;27.63;;
13584;SDS011;6863;48.402;9.994;2022-12-18T08:53:54;51.13;;;26.73;;
13584;SDS011;6863;48.402;9.994;2022-12-18T08:56:20;57.10;;;26.97;;
13584;SDS011;6863;48.402;9.994;2022-12-18T08:58:46;49.83;;;25.37;;
13584;SDS011;6863;48.402;9.994;2022-12-18T09:01:11;47.83;;;29.13;;
13584;SDS011;6863;48.402;9.994;2022-12-18T09:03:38;55.27;;;28.30;;
13584;SDS011;6863;48.402;9.994;2022-12-18T09:06:04;53.43;;;26.43;;
13584;SDS011;6863;48.402;9.994;2022-12-18T09:08:30;50.60;;;26.63;;
13584;SDS011;6863;48.402;9.994;2022-12-18T09:10:59;54.27;;;26.33;;
13584;SDS011;6863;48.402;9.994;2022-12-18T09:13:24;49.83;;;26.27;;
13584;SDS011;6863;48.402;9.994;2022-12-18T09:15:51;49.70;;;25.07;;
13584;SDS011;6863;48.402;9.994;2022-12-18T09:18:19;54.50;;;26.43;;
13584;SDS011;6863;48.402;9.994;2022-12-18T09:20:46;49.90;;;25.57;;
13584;SDS011;6863;48.402;9.994;2022-12-18T09:23:12;48.73;;;24.47;;
13584;SDS011;6863;48.402;9.994;2022-12-18T09:25:38;49.57;;;26.77;;
13584;SDS011;6863;48.402;9.994;2022-12-18T09:28:11;44.27;;;24.17;;
13584;SDS011;6863;48.402;9.994;2022-12-18T09:30:42;40.77;;;21.97;;
13584;SDS011;6863;48.402;9.994;2022-12-18T09:33:12;35.30;;;20.97;;
13584;SDS011;6863;48.402;9.994;2022-12-18T09:35:38;41.33;;;22.67;;
13584;SDS011;6863;48.402;9.994;2022-12-18T09:38:05;43.00;;;22.87;;
13584;SDS011;6863;48.402;9.994;2022-12-18T09:40:51;46.47;;;24.53;;
13584;SDS011;6863;48.402;9.994;2022-12-18T09:43:28;47.33;;;25.00;;
13584;SDS011;6863;48.402;9.994;2022-12-18T09:45:59;42.43;;;24.77;;
13584;SDS011;6863;48.402;9.994;2022-12-18T09:48:47;46.27;;;23.93;;
13584;SDS011;6863;48.402;9.994;2022-12-18T09:51:19;38.60;;;22.63;;
13584;SDS011;6863;48.402;9.994;2022-12-18T09:53:57;42.57;;;21.57;;
13584;SDS011;6863;48.402;9.994;2022-12-18T09:56:27;38.73;;;21.53;;
13584;SDS011;6863;48.402;9.994;2022-12-18T10:01:24;41.73;;;22.30;;
13584;SDS011;6863;48.402;9.994;2022-12-18T10:03:52;38.17;;;20.60;;
13584;SDS011;6863;48.402;9.994;2022-12-18T10:06:20;41.93;;;23.50;;
13584;SDS011;6863;48.402;9.994;2022-12-18T10:11:53;42.90;;;22.37;;
13584;SDS011;6863;48.402;9.994;2022-12-18T10:14:27;42.03;;;22.63;;
13584;SDS011;6863;48.402;9.994;2022-12-18T10:22:43;41.80;;;21.43;;
13584;SDS011;6863;48.402;9.994;2022-12-18T10:25:34;38.83;;;21.50;;
13584;SDS011;6863;48.402;9.994;2022-12-18T10:28:14;41.30;;;21.63;;
13584;SDS011;6863;48.402;9.994;2022-12-18T10:30:42;43.10;;;23.37;;
13584;SDS011;6863;48.402;9.994;2022-12-18T10:33:12;37.53;;;22.30;;
13584;SDS011;6863;48.402;9.994;2022-12-18T10:35:41;44.23;;;23.13;;
13584;SDS011;6863;48.402;9.994;2022-12-18T10:40:52;37.67;;;21.63;;
13584;SDS011;6863;48.402;9.994;2022-12-18T10:43:32;39.93;;;22.73;;
13584;SDS011;6863;48.402;9.994;2022-12-18T10:51:19;42.73;;;22.27;;
13584;SDS011;6863;48.402;9.994;2022-12-18T10:53:55;40.27;;;22.20;;
13584;SDS011;6863;48.402;9.994;2022-12-18T10:56:27;45.10;;;22.83;;
13584;SDS011;6863;48.402;9.994;2022-12-18T10:58:56;41.93;;;23.60;;
13584;SDS011;6863;48.402;9.994;2022-12-18T11:01:52;39.90;;;22.80;;
13584;SDS011;6863;48.402;9.994;2022-12-18T11:04:26;41.60;;;21.97;;
13584;SDS011;6863;48.402;9.994;2022-12-18T11:09:24;35.27;;;20.97;;
13584;SDS011;6863;48.402;9.994;2022-12-18T11:12:04;42.47;;;23.07;;
13584;SDS011;6863;48.402;9.994;2022-12-18T11:14:46;37.50;;;22.57;;
13584;SDS011;6863;48.402;9.994;2022-12-18T11:17:18;37.10;;;21.87;;
13584;SDS011;6863;48.402;9.994;2022-12-18T11:19:58;38.53;;;21.13;;
13584;SDS011;6863;48.402;9.994;2022-12-18T11:22:26;39.17;;;22.00;;
13584;SDS011;6863;48.402;9.994;2022-12-18T11:25:07;33.77;;;18.60;;
13584;SDS011;6863;48.402;9.994;2022-12-18T11:28:27;35.67;;;19.10;;
13584;SDS011;6863;48.402;9.994;2022-12-18T11:31:08;39.90;;;21.27;;
13584;SDS011;6863;48.402;9.994;2022-12-18T11:36:32;37.20;;;19.90;;
13584;SDS011;6863;48.402;9.994;2022-12-18T11:39:07;40.20;;;19.90;;
13584;SDS011;6863;48.402;9.994;2022-12-18T11:41:59;29.53;;;18.47;;
13584;SDS011;6863;48.402;9.994;2022-12-18T11:44:50;34.97;;;20.40;;
13584;SDS011;6863;48.402;9.994;2022-12-18T11:49:47;37.27;;;21.27;;
13584;SDS011;6863;48.402;9.994;2022-12-18T11:54:50;35.97;;;19.70;;
13584;SDS011;6863;48.402;9.994;2022-12-18T12:02:49;31.50;;;18.30;;
13584;SDS011;6863;48.402;9.994;2022-12-18T12:05:31;31.83;;;18.43;;
13584;SDS011;6863;48.402;9.994;2022-12-18T12:13:37;32.13;;;17.80;;
13584;SDS011;6863;48.402;9.994;2022-12-18T12:16:46;31.23;;;17.53;;
13584;SDS011;6863;48.402;9.994;2022-12-18T12:19:43;31.00;;;17.70;;
13584;SDS011;6863;48.402;9.994;2022-12-18T12:22:21;38.20;;;20.37;;
13584;SDS011;6863;48.402;9.994;2022-12-18T12:33:26;33.47;;;19.60;;
13584;SDS011;6863;48.402;9.994;2022-12-18T12:38:57;33.93;;;18.43;;
13584;SDS011;6863;48.402;9.994;2022-12-18T12:41:27;33.67;;;19.33;;
13584;SDS011;6863;48.402;9.994;2022-12-18T12:44:19;31.70;;;20.10;;
13584;SDS011;6863;48.402;9.994;2022-12-18T12:46:55;32.07;;;18.07;;
13584;SDS011;6863;48.402;9.994;2022-12-18T12:49:26;32.83;;;18.70;;
13584;SDS011;6863;48.402;9.994;2022-12-18T12:52:00;31.47;;;18.47;;
13584;SDS011;6863;48.402;9.994;2022-12-18T12:54:52;33.57;;;18.20;;
13584;SDS011;6863;48.402;9.994;2022-12-18T12:57:29;31.80;;;17.23;;
13584;SDS011;6863;48.402;9.994;2022-12-18T13:05:30;30.93;;;16.70;;
13584;SDS011;6863;48.402;9.994;2022-12-18T13:08:12;29.97;;;17.77;;
13584;SDS011;6863;48.402;9.994;2022-12-18T13:10:49;36.33;;;19.47;;
13584;SDS011;6863;48.402;9.994;2022-12-18T13:13:56;30.77;;;17.50;;
13584;SDS011;6863;48.402;9.994;2022-12-18T13:16:22;34.43;;;18.07;;
13584;SDS011;6863;48.402;9.994;2022-12-18T13:18:53;31.53;;;17.77;;
13584;SDS011;6863;48.402;9.994;2022-12-18T13:23:52;37.33;;;20.63;;
13584;SDS011;6863;48.402;9.994;2022-12-18T13:33:53;33.27;;;18.37;;
13584;SDS011;6863;48.402;9.994;2022-12-18T13:36:47;33.87;;;18.87;;
13584;SDS011;6863;48.402;9.994;2022-12-18T13:41:44;30.73;;;17.57;;
13584;SDS011;6863;48.402;9.994;2022-12-18T13:47:05;34.67;;;18.07;;
13584;SDS011;6863;48.402;9.994;2022-12-18T13:49:49;34.63;;;19.17;;
13584;SDS011;6863;48.402;9.994;2022-12-18T13:54:56;34.33;;;19.10;;
13584;SDS011;6863;48.402;9.994;2022-12-18T13:59:54;33.33;;;17.47;;
13584;SDS011;6863;48.402;9.994;2022-12-18T14:02:22;34.63;;;18.30;;
13584;SDS011;6863;48.402;9.994;2022-12-18T14:04:52;34.93;;;18.93;;
13584;SDS011;6863;48.402;9.994;2022-12-18T14:09:53;31.73;;;19.47;;
13584;SDS011;6863;48.402;9.994;2022-12-18T14:12:29;31.83;;;19.20;;
13584;SDS011;6863;48.402;9.994;2022-12-18T14:17:40;36.87;;;20.47;;
13584;SDS011;6863;48.402;9.994;2022-12-18T14:20:12;36.37;;;20.37;;
13584;SDS011;6863;48.402;9.994;2022-12-18T14:22:39;38.03;;;20.37;;
13584;SDS011;6863;48.402;9.994;2022-12-18T14:27:41;37.73;;;19.70;;
13584;SDS011;6863;48.402;9.994;2022-12-18T14:35:59;36.47;;;18.67;;
13584;SDS011;6863;48.402;9.994;2022-12-18T14:38:30;40.23;;;20.20;;
13584;SDS011;6863;48.402;9.994;2022-12-18T14:41:00;35.67;;;18.80;;
13584;SDS011;6863;48.402;9.994;2022-12-18T14:43:37;36.97;;;19.87;;
13584;SDS011;6863;48.402;9.994;2022-12-18T14:46:05;42.63;;;21.07;;
13584;SDS011;6863;48.402;9.994;2022-12-18T14:48:50;42.53;;;22.27;;
13584;SDS011;6863;48.402;9.994;2022-12-18T14:51:18;34.67;;;19.97;;
13584;SDS011;6863;48.402;9.994;2022-12-18T14:56:14;33.77;;;19.47;;
13584;SDS011;6863;48.402;9.994;2022-12-18T14:58:46;42.20;;;19.90;;
13584;SDS011;6863;48.402;9.994;2022-12-18T15:01:21;43.53;;;20.83;;
13584;SDS011;6863;48.402;9.994;2022-12-18T15:03:54;37.17;;;19.70;;
13584;SDS011;6863;48.402;9.994;2022-12-18T15:06:42;34.50;;;20.23;;
13584;SDS011;6863;48.402;9.994;2022-12-18T15:09:23;39.20;;;20.23;;
13584;SDS011;6863;48.402;9.994;2022-12-18T15:11:55;42.20;;;21.00;;
13584;SDS011;6863;48.402;9.994;2022-12-18T15:14:39;46.23;;;23.07;;
13584;SDS011;6863;48.402;9.994;2022-12-18T15:17:26;36.90;;;20.97;;
13584;SDS011;6863;48.402;9.994;2022-12-18T15:19:53;31.20;;;19.33;;
13584;SDS011;6863;48.402;9.994;2022-12-18T15:22:29;41.33;;;21.53;;
13584;SDS011;6863;48.402;9.994;2022-12-18T15:24:58;39.03;;;20.17;;
13584;SDS011;6863;48.402;9.994;2022-12-18T15:27:32;39.80;;;20.30;;
13584;SDS011;6863;48.402;9.994;2022-12-18T15:32:35;36.47;;;20.57;;
13584;SDS011;6863;48.402;9.994;2022-12-18T15:37:34;37.03;;;20.10;;
13584;SDS011;6863;48.402;9.994;2022-12-18T15:40:03;39.30;;;18.70;;
13584;SDS011;6863;48.402;9.994;2022-12-18T15:42:33;36.83;;;18.97;;
13584;SDS011;6863;48.402;9.994;2022-12-18T15:45:17;36.90;;;19.37;;
13584;SDS011;6863;48.402;9.994;2022-12-18T15:47:43;37.67;;;20.47;;
13584;SDS011;6863;48.402;9.994;2022-12-18T15:50:09;37.57;;;20.57;;
13584;SDS011;6863;48.402;9.994;2022-12-18T15:52:41;37.70;;;20.50;;
13584;SDS011;6863;48.402;9.994;2022-12-18T15:55:13;33.93;;;18.77;;
13584;SDS011;6863;48.402;9.994;2022-12-18T15:58:01;42.93;;;21.87;;
13584;SDS011;6863;48.402;9.994;2022-12-18T16:00:27;35.17;;;19.47;;
13584;SDS011;6863;48.402;9.994;2022-12-18T16:02:52;36.37;;;20.43;;
13584;SDS011;6863;48.402;9.994;2022-12-18T16:05:18;37.33;;;20.60;;
13584;SDS011;6863;48.402;9.994;2022-12-18T16:07:45;37.97;;;21.07;;
13584;SDS011;6863;48.402;9.994;2022-12-18T16:10:14;36.37;;;20.03;;
13584;SDS011;6863;48.402;9.994;2022-12-18T16:12:40;38.67;;;22.00;;
13584;SDS011;6863;48.402;9.994;2022-12-18T16:15:06;45.10;;;21.73;;
13584;SDS011;6863;48.402;9.994;2022-12-18T16:17:33;49.27;;;25.83;;
13584;SDS011;6863;48.402;9.994;2022-12-18T16:19:58;49.60;;;25.30;;
13584;SDS011;6863;48.402;9.994;2022-12-18T16:22:25;44.40;;;23.57;;
13584;SDS011;6863;48.402;9.994;2022-12-18T16:24:53;39.37;;;20.53;;
13584;SDS011;6863;48.402;9.994;2022-12-18T16:27:20;44.07;;;23.43;;
13584;SDS011;6863;48.402;9.994;2022-12-18T16:29:46;35.73;;;20.07;;
13584;SDS011;6863;48.402;9.994;2022-12-18T16:32:13;39.10;;;21.53;;
13584;SDS011;6863;48.402;9.994;2022-12-18T16:34:41;39.20;;;20.97;;
13584;SDS011;6863;48.402;9.994;2022-12-18T16:37:07;42.97;;;22.10;;
13584;SDS011;6863;48.402;9.994;2022-12-18T16:39:34;40.73;;;20.07;;
13584;SDS011;6863;48.402;9.994;2022-12-18T16:42:02;41.73;;;21.70;;
13584;SDS011;6863;48.402;9.994;2022-12-18T16:44:29;41.60;;;21.70;;
13584;SDS011;6863;48.402;9.994;2022-12-18T16:46:54;38.87;;;21.23;;
13584;SDS011;6863;48.402;9.994;2022-12-18T16:49:26;41.13;;;22.50;;
13584;SDS011;6863;48.402;9.994;2022-12-18T16:51:52;41.23;;;21.20;;
13584;SDS011;6863;48.402;9.994;2022-12-18T16:54:18;36.23;;;21.00;;
13584;SDS011;6863;48.402;9.994;2022-12-18T16:56:44;45.43;;;22.83;;
13584;SDS011;6863;48.402;9.994;2022-12-18T16:59:13;46.67;;;25.10;;
13584;SDS011;6863;48.402;9.994;2022-12-18T17:01:39;38.07;;;21.90;;